createdAt,value
2022-11-18T00:02:01.557Z,98.90
2022-11-18T00:04:31.343Z,98.97
2022-11-18T00:06:59.186Z,98.81
2022-11-18T00:09:29.279Z,99.21
2022-11-18T00:12:16.048Z,99.24
2022-11-18T00:14:46.325Z,98.67
2022-11-18T00:20:24.537Z,97.89
2022-11-18T00:22:56.914Z,97.63
2022-11-18T00:25:24.741Z,98.04
2022-11-18T00:27:55.269Z,97.92
2022-11-18T00:30:30.742Z,98.11
2022-11-18T00:33:01.685Z,98.12
2022-11-18T00:35:31.896Z,98.34
2022-11-18T00:38:00.896Z,98.22
2022-11-18T00:40:57.230Z,98.53
2022-11-18T00:43:34.530Z,98.31
2022-11-18T00:46:13.442Z,98.53
2022-11-18T00:48:50.105Z,98.32
2022-11-18T00:51:27.639Z,98.13
2022-11-18T00:53:56.535Z,98.15
2022-11-18T00:56:28.774Z,97.95
2022-11-18T00:58:58.195Z,98.24
2022-11-18T01:01:30.098Z,97.91
2022-11-18T01:04:00.432Z,98.04
2022-11-18T01:06:30.473Z,97.59
2022-11-18T01:08:58.795Z,97.24
2022-11-18T01:11:45.646Z,97.38
2022-11-18T01:14:22.703Z,97.12
2022-11-18T01:17:02.218Z,97.00
2022-11-18T01:19:35.995Z,97.86
2022-11-18T01:22:09.425Z,98.05
2022-11-18T01:24:39.083Z,98.04
2022-11-18T01:27:10.277Z,98.06
2022-11-18T01:29:43.756Z,98.20
2022-11-18T01:32:26.353Z,98.46
2022-11-18T01:35:04.844Z,98.72
2022-11-18T01:38:16.901Z,99.30
2022-11-18T01:40:45.239Z,98.92
2022-11-18T01:43:22.100Z,98.81
2022-11-18T01:46:11.176Z,98.92
2022-11-18T01:48:40.923Z,98.51
2022-11-18T01:51:17.557Z,98.43
2022-11-18T01:53:52.665Z,98.68
2022-11-18T01:56:50.099Z,98.48
2022-11-18T01:59:35.170Z,98.30
2022-11-18T02:02:22.846Z,98.32
2022-11-18T02:04:59.217Z,98.47
2022-11-18T02:07:48.559Z,98.61
2022-11-18T02:10:28.070Z,99.35
2022-11-18T02:13:02.427Z,99.50
2022-11-18T02:15:49.122Z,99.23
2022-11-18T02:18:36.283Z,99.26
2022-11-18T02:21:23.324Z,99.53
2022-11-18T02:24:22.784Z,99.51
2022-11-18T02:27:27.403Z,99.37
2022-11-18T02:30:04.175Z,99.64
2022-11-18T02:32:35.501Z,99.94
2022-11-18T02:35:12.551Z,99.65
2022-11-18T02:37:49.664Z,99.49
2022-11-18T02:40:32.892Z,99.82
2022-11-18T02:43:08.600Z,99.95
2022-11-18T02:45:42.486Z,99.66
2022-11-18T02:48:19.419Z,99.46
2022-11-18T02:50:56.784Z,99.90
2022-11-18T02:53:30.163Z,99.46
2022-11-18T02:56:00.203Z,98.99
2022-11-18T02:58:28.337Z,98.76
2022-11-18T03:00:59.898Z,98.54
2022-11-18T03:03:36.121Z,98.78
2022-11-18T03:06:13.260Z,99.32
2022-11-18T03:09:00.891Z,99.68
2022-11-18T03:11:36.799Z,99.87
2022-11-18T03:14:16.943Z,99.52
2022-11-18T03:20:00.262Z,99.86
2022-11-18T03:22:34.553Z,99.76
2022-11-18T03:25:08.787Z,99.55
2022-11-18T03:27:45.674Z,98.91
2022-11-18T03:30:22.017Z,98.86
2022-11-18T03:33:15.650Z,99.18
2022-11-18T03:35:47.705Z,99.11
2022-11-18T03:38:21.481Z,99.14
2022-11-18T03:40:55.085Z,99.47
2022-11-18T03:43:49.291Z,99.79
2022-11-18T03:46:26.754Z,99.58
2022-11-18T03:49:03.655Z,99.36
2022-11-18T03:51:37.669Z,98.96
2022-11-18T03:54:16.382Z,98.93
2022-11-18T03:56:58.226Z,99.04
2022-11-18T03:59:34.826Z,98.51
2022-11-18T04:02:08.386Z,98.86
2022-11-18T04:04:38.037Z,99.21
2022-11-18T04:07:11.770Z,99.80
2022-11-18T04:09:44.561Z,100.00
2022-11-18T04:12:16.077Z,100.00
2022-11-18T04:14:54.729Z,100.00
2022-11-18T04:17:39.450Z,100.00
2022-11-18T04:20:16.537Z,100.00
2022-11-18T04:22:45.274Z,100.00
2022-11-18T04:25:16.846Z,99.77
2022-11-18T04:27:45.675Z,99.46
2022-11-18T04:30:15.837Z,99.54
2022-11-18T04:32:45.025Z,99.13
2022-11-18T04:35:17.375Z,99.43
2022-11-18T04:37:45.988Z,99.77
2022-11-18T04:40:13.947Z,100.00
2022-11-18T04:42:41.837Z,99.70
2022-11-18T04:45:11.723Z,99.97
2022-11-18T04:47:42.283Z,99.95
2022-11-18T04:50:10.804Z,100.00
2022-11-18T04:52:42.793Z,100.00
2022-11-18T04:55:10.350Z,100.00
2022-11-18T04:57:42.979Z,100.00
2022-11-18T05:00:11.947Z,100.00
2022-11-18T05:02:42.384Z,100.00
2022-11-18T05:05:12.055Z,100.00
2022-11-18T05:07:42.818Z,99.79
2022-11-18T05:10:14.240Z,100.00
2022-11-18T05:12:50.507Z,100.00
2022-11-18T05:15:21.581Z,100.00
2022-11-18T05:17:51.976Z,100.00
2022-11-18T05:20:37.414Z,100.00
2022-11-18T05:23:12.214Z,100.00
2022-11-18T05:25:40.157Z,100.00
2022-11-18T05:28:09.320Z,100.00
2022-11-18T05:30:37.244Z,100.00
2022-11-18T05:33:05.398Z,100.00
2022-11-18T05:35:33.692Z,100.00
2022-11-18T05:38:05.843Z,100.00
2022-11-18T05:40:34.853Z,100.00
2022-11-18T05:43:13.925Z,100.00
2022-11-18T05:45:46.340Z,100.00
2022-11-18T05:48:15.725Z,100.00
2022-11-18T05:50:46.662Z,100.00
2022-11-18T05:53:19.552Z,100.00
2022-11-18T05:55:56.500Z,100.00
2022-11-18T05:58:26.703Z,100.00
2022-11-18T06:01:00.323Z,100.00
2022-11-18T06:03:32.693Z,100.00
2022-11-18T06:06:05.478Z,99.98
2022-11-18T06:08:42.224Z,100.00
2022-11-18T06:11:16.400Z,100.00
2022-11-18T06:13:50.680Z,99.82
2022-11-18T06:16:24.995Z,100.00
2022-11-18T06:18:54.427Z,100.00
2022-11-18T06:21:27.044Z,100.00
2022-11-18T06:23:58.121Z,100.00
2022-11-18T06:26:32.414Z,100.00
2022-11-18T06:29:08.284Z,100.00
2022-11-18T06:31:37.418Z,100.00
2022-11-18T06:34:05.496Z,100.00
2022-11-18T06:36:36.818Z,100.00
2022-11-18T06:39:05.840Z,100.00
2022-11-18T06:41:37.857Z,100.00
2022-11-18T06:44:12.995Z,100.00
2022-11-18T06:47:03.025Z,100.00
2022-11-18T06:49:35.818Z,100.00
2022-11-18T06:52:13.802Z,100.00
2022-11-18T06:54:45.240Z,100.00
2022-11-18T06:57:22.967Z,100.00
2022-11-18T06:59:52.035Z,100.00
2022-11-18T07:02:20.180Z,100.00
2022-11-18T07:04:47.779Z,100.00
2022-11-18T07:07:15.879Z,99.89
2022-11-18T07:09:44.592Z,99.78
2022-11-18T07:12:12.256Z,99.66
2022-11-18T07:14:41.185Z,99.71
2022-11-18T07:17:08.769Z,99.85
2022-11-18T07:19:36.771Z,100.00
2022-11-18T07:22:04.452Z,100.00
2022-11-18T07:24:32.563Z,100.00
2022-11-18T07:27:00.991Z,100.00
2022-11-18T07:29:37.694Z,100.00
2022-11-18T07:32:21.823Z,100.00
2022-11-18T07:34:50.389Z,100.00
2022-11-18T07:37:18.401Z,100.00
2022-11-18T07:39:50.023Z,100.00
2022-11-18T07:42:18.104Z,100.00
2022-11-18T07:44:46.486Z,100.00
2022-11-18T07:47:17.926Z,100.00
2022-11-18T07:50:00.637Z,99.93
2022-11-18T07:52:28.409Z,99.17
2022-11-18T07:54:57.947Z,99.11
2022-11-18T07:57:25.626Z,98.88
2022-11-18T07:59:53.247Z,99.24
2022-11-18T08:02:29.010Z,99.22
2022-11-18T08:04:58.365Z,98.96
2022-11-18T08:07:28.690Z,99.79
2022-11-18T08:09:57.257Z,100.00
2022-11-18T08:12:25.626Z,100.00
2022-11-18T08:14:53.651Z,99.32
2022-11-18T08:17:26.629Z,99.44
2022-11-18T08:19:54.527Z,99.31
2022-11-18T08:22:22.549Z,99.57
2022-11-18T08:24:50.612Z,99.81
2022-11-18T08:27:23.711Z,99.21
2022-11-18T08:29:52.295Z,99.41
2022-11-18T08:32:20.028Z,98.51
2022-11-18T08:34:51.309Z,97.89
2022-11-18T08:37:19.395Z,97.78
2022-11-18T08:39:47.524Z,97.65
2022-11-18T08:42:18.325Z,97.41
2022-11-18T08:44:48.718Z,96.51
2022-11-18T08:47:19.123Z,96.85
2022-11-18T08:49:47.409Z,96.90
2022-11-18T08:52:16.732Z,96.92
2022-11-18T08:54:44.460Z,96.54
2022-11-18T08:57:12.117Z,97.00
2022-11-18T08:59:39.746Z,97.07
2022-11-18T09:02:09.214Z,97.35
2022-11-18T09:04:37.194Z,97.50
2022-11-18T09:07:05.420Z,97.83
2022-11-18T09:09:37.129Z,97.20
2022-11-18T09:12:07.613Z,97.56
2022-11-18T09:17:26.510Z,96.66
2022-11-18T09:19:55.070Z,95.66
2022-11-18T09:22:55.366Z,95.22
2022-11-18T09:25:25.801Z,95.42
2022-11-18T09:27:55.458Z,95.59
2022-11-18T09:30:23.147Z,96.13
2022-11-18T09:32:51.263Z,95.96
2022-11-18T09:35:19.005Z,96.87
2022-11-18T09:37:46.907Z,97.11
2022-11-18T09:40:18.656Z,96.90
2022-11-18T09:43:01.817Z,96.47
2022-11-18T09:45:37.426Z,96.46
2022-11-18T09:48:16.699Z,96.70
2022-11-18T09:50:50.049Z,96.07
2022-11-18T09:53:21.155Z,94.38
2022-11-18T09:55:50.509Z,93.43
2022-11-18T09:58:23.785Z,92.62
2022-11-18T10:00:51.391Z,92.79
2022-11-18T10:03:28.175Z,93.29
2022-11-18T10:05:59.547Z,92.84
2022-11-18T10:08:32.703Z,92.36
2022-11-18T10:11:07.843Z,92.60
2022-11-18T10:13:49.900Z,92.66
2022-11-18T10:16:30.290Z,92.47
2022-11-18T10:19:06.441Z,92.62
2022-11-18T10:21:47.427Z,92.71
2022-11-18T10:24:20.885Z,92.63
2022-11-18T10:26:49.216Z,92.69
2022-11-18T10:29:18.328Z,91.97
2022-11-18T10:32:01.134Z,91.35
2022-11-18T10:34:33.889Z,90.64
2022-11-18T10:37:05.415Z,90.42
2022-11-18T10:39:35.383Z,90.26
2022-11-18T10:42:06.491Z,90.51
2022-11-18T10:44:38.907Z,90.49
2022-11-18T10:47:41.764Z,91.44
2022-11-18T10:50:30.695Z,91.87
2022-11-18T10:52:58.407Z,91.80
2022-11-18T10:55:29.717Z,92.00
2022-11-18T10:58:01.754Z,91.56
2022-11-18T11:00:47.695Z,91.00
2022-11-18T11:03:37.089Z,91.15
2022-11-18T11:06:31.216Z,91.25
2022-11-18T11:09:02.410Z,90.67
2022-11-18T11:11:33.389Z,89.95
2022-11-18T11:14:26.897Z,90.27
2022-11-18T11:17:13.592Z,89.76
2022-11-18T11:19:49.300Z,89.32
2022-11-18T11:22:17.924Z,88.69
2022-11-18T11:24:47.099Z,88.68
2022-11-18T11:30:18.169Z,87.09
2022-11-18T11:33:33.395Z,87.31
2022-11-18T11:36:19.996Z,87.88
2022-11-18T11:39:04.239Z,88.58
2022-11-18T11:41:40.557Z,88.83
2022-11-18T11:44:26.832Z,88.46
2022-11-18T11:47:24.333Z,88.77
2022-11-18T11:50:02.236Z,88.48
2022-11-18T11:52:40.696Z,88.17
2022-11-18T11:55:18.029Z,88.75
2022-11-18T11:58:00.798Z,87.32
2022-11-18T12:00:28.911Z,87.03
2022-11-18T12:03:14.992Z,86.61
2022-11-18T12:05:44.348Z,86.04
2022-11-18T12:08:17.385Z,86.48
2022-11-18T12:10:49.345Z,86.17
2022-11-18T12:13:27.994Z,86.30
2022-11-18T12:16:10.316Z,86.12
2022-11-18T12:18:46.874Z,84.97
2022-11-18T12:21:48.048Z,85.19
2022-11-18T12:24:46.305Z,84.61
2022-11-18T12:27:15.925Z,84.00
2022-11-18T12:29:56.555Z,83.14
2022-11-18T12:32:31.826Z,81.55
2022-11-18T12:35:03.685Z,80.54
2022-11-18T12:37:46.223Z,81.95
2022-11-18T12:40:38.240Z,81.15
2022-11-18T12:43:24.584Z,81.74
2022-11-18T12:45:57.091Z,82.21
2022-11-18T12:48:35.151Z,81.83
2022-11-18T12:51:32.790Z,82.23
2022-11-18T12:54:01.515Z,81.94
2022-11-18T12:56:35.834Z,81.12
2022-11-18T12:59:04.441Z,80.54
2022-11-18T13:01:35.149Z,81.30
2022-11-18T13:04:08.845Z,81.29
2022-11-18T13:06:39.684Z,82.63
2022-11-18T13:09:16.452Z,83.18
2022-11-18T13:11:52.372Z,85.32
2022-11-18T13:14:42.049Z,84.20
2022-11-18T13:17:50.321Z,83.79
2022-11-18T13:20:29.930Z,81.38
2022-11-18T13:23:17.589Z,81.74
2022-11-18T13:25:46.842Z,81.30
2022-11-18T13:28:29.798Z,82.46
2022-11-18T13:31:06.350Z,83.13
2022-11-18T13:33:37.199Z,83.27
2022-11-18T13:36:14.139Z,83.80
2022-11-18T13:38:56.141Z,83.53
2022-11-18T13:41:32.929Z,83.88
2022-11-18T13:44:25.105Z,84.86
2022-11-18T13:46:57.099Z,84.86
2022-11-18T13:49:34.742Z,84.51
2022-11-18T13:52:02.962Z,85.93
2022-11-18T13:54:35.521Z,85.02
2022-11-18T13:57:05.467Z,82.68
2022-11-18T13:59:36.761Z,81.21
2022-11-18T14:02:04.457Z,79.68
2022-11-18T14:04:36.257Z,79.54
2022-11-18T14:07:26.955Z,79.30
2022-11-18T14:09:57.318Z,79.42
2022-11-18T14:12:28.951Z,78.48
2022-11-18T14:15:34.102Z,78.50
2022-11-18T14:18:03.647Z,78.74
2022-11-18T14:20:34.087Z,79.03
2022-11-18T14:23:05.654Z,79.91
2022-11-18T14:28:23.483Z,80.68
2022-11-18T14:31:06.652Z,81.10
2022-11-18T14:33:36.362Z,81.08
2022-11-18T14:36:12.194Z,80.95
2022-11-18T14:39:11.401Z,80.44
2022-11-18T14:41:48.093Z,80.14
2022-11-18T14:44:17.625Z,79.60
2022-11-18T14:46:49.864Z,80.03
2022-11-18T14:49:19.961Z,80.48
2022-11-18T14:51:48.098Z,80.30
2022-11-18T14:54:23.889Z,81.21
2022-11-18T14:56:58.682Z,80.99
2022-11-18T14:59:26.429Z,81.83
2022-11-18T15:01:56.538Z,81.90
2022-11-18T15:04:25.379Z,82.42
2022-11-18T15:06:53.303Z,82.68
2022-11-18T15:09:21.248Z,82.53
2022-11-18T15:11:50.835Z,82.40
2022-11-18T15:14:19.676Z,82.75
2022-11-18T15:16:47.512Z,83.07
2022-11-18T15:19:18.344Z,82.94
2022-11-18T15:21:46.315Z,82.59
2022-11-18T15:24:14.846Z,82.84
2022-11-18T15:26:46.967Z,83.05
2022-11-18T15:29:18.788Z,82.91
2022-11-18T15:31:47.952Z,83.00
2022-11-18T15:34:20.058Z,83.81
2022-11-18T15:36:48.230Z,83.79
2022-11-18T15:39:16.089Z,83.80
2022-11-18T15:41:44.242Z,84.45
2022-11-18T15:44:12.992Z,84.67
2022-11-18T15:46:40.948Z,84.79
2022-11-18T15:49:13.734Z,84.98
2022-11-18T15:51:43.058Z,84.86
2022-11-18T15:54:10.677Z,85.24
2022-11-18T15:56:40.184Z,85.23
2022-11-18T15:59:10.877Z,85.58
2022-11-18T16:01:40.241Z,87.00
2022-11-18T16:04:10.230Z,87.28
2022-11-18T16:06:39.541Z,87.44
2022-11-18T16:09:08.660Z,88.52
2022-11-18T16:11:54.021Z,89.47
2022-11-18T16:14:23.376Z,89.61
2022-11-18T16:16:54.003Z,90.15
2022-11-18T16:19:24.477Z,90.83
2022-11-18T16:21:54.591Z,91.04
2022-11-18T16:24:26.066Z,91.14
2022-11-18T16:26:54.904Z,91.38
2022-11-18T16:29:25.613Z,91.49
2022-11-18T16:31:54.983Z,92.39
2022-11-18T16:34:24.320Z,92.71
2022-11-18T16:36:53.956Z,93.41
2022-11-18T16:39:25.610Z,93.72
2022-11-18T16:41:54.677Z,93.78
2022-11-18T16:44:23.204Z,93.91
2022-11-18T16:46:52.633Z,93.98
2022-11-18T16:49:22.219Z,94.66
2022-11-18T16:51:52.837Z,95.10
2022-11-18T16:54:24.120Z,94.80
2022-11-18T16:56:53.088Z,94.93
2022-11-18T16:59:25.288Z,94.84
2022-11-18T17:01:56.027Z,94.69
2022-11-18T17:04:25.452Z,94.29
2022-11-18T17:06:54.608Z,93.55
2022-11-18T17:09:36.539Z,93.45
2022-11-18T17:12:05.529Z,92.75
2022-11-18T17:14:34.033Z,92.73
2022-11-18T17:17:04.222Z,92.62
2022-11-18T17:19:33.081Z,92.35
2022-11-18T17:22:05.152Z,91.96
2022-11-18T17:24:34.499Z,91.93
2022-11-18T17:27:05.740Z,91.78
2022-11-18T17:29:34.777Z,91.35
2022-11-18T17:32:02.714Z,91.13
2022-11-18T17:34:30.824Z,91.41
2022-11-18T17:37:04.781Z,91.18
2022-11-18T17:39:36.428Z,90.99
2022-11-18T17:42:26.722Z,90.86
2022-11-18T17:45:02.798Z,91.00
2022-11-18T17:47:38.335Z,90.84
2022-11-18T17:50:08.231Z,90.87
2022-11-18T17:56:10.021Z,90.53
2022-11-18T17:58:39.244Z,90.10
2022-11-18T18:01:12.021Z,90.44
2022-11-18T18:03:41.198Z,90.03
2022-11-18T18:06:13.768Z,89.81
2022-11-18T18:08:46.358Z,89.63
2022-11-18T18:11:30.497Z,89.57
2022-11-18T18:14:13.040Z,89.54
2022-11-18T18:16:44.946Z,89.32
2022-11-18T18:19:18.355Z,89.39
2022-11-18T18:21:52.279Z,89.87
2022-11-18T18:24:21.562Z,90.11
2022-11-18T18:26:57.460Z,90.02
2022-11-18T18:29:32.120Z,90.28
2022-11-18T18:32:01.161Z,90.72
2022-11-18T18:34:31.586Z,90.42
2022-11-18T18:36:59.928Z,90.72
2022-11-18T18:39:30.153Z,91.14
2022-11-18T18:42:00.433Z,91.21
2022-11-18T18:44:50.181Z,91.56
2022-11-18T18:47:17.887Z,92.12
2022-11-18T18:49:50.497Z,92.29
2022-11-18T18:52:29.091Z,92.78
2022-11-18T18:54:57.964Z,93.09
2022-11-18T18:57:27.291Z,92.93
2022-11-18T18:59:57.971Z,93.02
2022-11-18T19:02:28.676Z,92.87
2022-11-18T19:05:06.240Z,92.90
2022-11-18T19:07:37.885Z,93.16
2022-11-18T19:10:09.513Z,93.53
2022-11-18T19:12:47.336Z,93.14
2022-11-18T19:15:16.963Z,93.36
2022-11-18T19:18:07.043Z,93.04
2022-11-18T19:20:37.132Z,92.82
2022-11-18T19:23:10.659Z,92.55
2022-11-18T19:25:38.657Z,92.81
2022-11-18T19:28:11.897Z,93.04
2022-11-18T19:30:40.160Z,93.06
2022-11-18T19:33:07.772Z,93.28
2022-11-18T19:35:35.835Z,93.54
2022-11-18T19:38:04.066Z,93.58
2022-11-18T19:40:32.160Z,93.01
2022-11-18T19:45:54.749Z,92.39
2022-11-18T19:48:27.855Z,91.87
2022-11-18T19:51:07.352Z,91.48
2022-11-18T19:53:36.886Z,90.99
2022-11-18T19:56:17.914Z,90.74
2022-11-18T19:58:46.530Z,90.43
2022-11-18T20:01:18.482Z,90.13
2022-11-18T20:03:48.620Z,90.77
2022-11-18T20:06:39.209Z,90.87
2022-11-18T20:09:08.658Z,91.14
2022-11-18T20:11:39.194Z,90.93
2022-11-18T20:14:37.527Z,91.45
2022-11-18T20:20:27.327Z,92.27
2022-11-18T20:23:01.687Z,91.60
2022-11-18T20:25:34.059Z,91.97
2022-11-18T20:28:01.780Z,92.18
2022-11-18T20:30:34.258Z,91.77
2022-11-18T20:33:03.611Z,92.34
2022-11-18T20:35:31.869Z,92.94
2022-11-18T20:38:05.575Z,93.26
2022-11-18T20:40:39.933Z,92.80
2022-11-18T20:43:21.398Z,93.56
2022-11-18T20:46:03.684Z,94.11
2022-11-18T20:48:34.696Z,93.96
2022-11-18T20:51:04.395Z,94.20
2022-11-18T20:53:35.026Z,94.01
2022-11-18T20:56:03.001Z,94.36
2022-11-18T20:58:34.563Z,94.54
2022-11-18T21:01:12.650Z,95.01
2022-11-18T21:03:43.812Z,94.88
2022-11-18T21:06:19.615Z,95.52
2022-11-18T21:08:48.647Z,95.09
2022-11-18T21:11:24.632Z,95.12
2022-11-18T21:14:10.284Z,95.69
2022-11-18T21:16:41.087Z,95.33
2022-11-18T21:19:14.135Z,95.64
2022-11-18T21:21:50.118Z,95.63
2022-11-18T21:24:20.148Z,95.30
2022-11-18T21:26:52.026Z,95.38
2022-11-18T21:29:22.405Z,94.98
2022-11-18T21:31:52.595Z,94.92
2022-11-18T21:34:25.005Z,95.01
2022-11-18T21:36:55.202Z,94.96
2022-11-18T21:39:23.933Z,95.25
2022-11-18T21:41:55.757Z,95.06
2022-11-18T21:44:45.626Z,94.94
2022-11-18T21:47:14.723Z,94.71
2022-11-18T21:49:45.817Z,95.13
2022-11-18T21:52:17.215Z,94.59
2022-11-18T21:54:47.826Z,94.69
2022-11-18T21:57:17.361Z,93.85
2022-11-18T21:59:47.024Z,93.79
2022-11-18T22:02:21.787Z,93.94
2022-11-18T22:04:54.243Z,94.45
2022-11-18T22:07:24.774Z,94.80
2022-11-18T22:09:55.209Z,95.51
2022-11-18T22:12:23.106Z,95.14
2022-11-18T22:14:50.710Z,96.21
2022-11-18T22:17:18.681Z,96.53
2022-11-18T22:19:47.104Z,97.42
2022-11-18T22:22:18.575Z,97.25
2022-11-18T22:24:54.097Z,97.36
2022-11-18T22:27:22.434Z,97.36
2022-11-18T22:29:51.121Z,96.86
2022-11-18T22:32:23.832Z,96.79
2022-11-18T22:34:53.786Z,96.93
2022-11-18T22:37:27.980Z,97.13
2022-11-18T22:39:59.323Z,95.35
2022-11-18T22:42:45.021Z,95.22
2022-11-18T22:45:13.427Z,95.09
2022-11-18T22:47:41.225Z,94.49
2022-11-18T22:50:13.010Z,95.83
2022-11-18T22:52:50.498Z,95.74
2022-11-18T22:55:26.891Z,95.35
2022-11-18T22:57:55.787Z,95.16
2022-11-18T23:00:24.400Z,95.65
2022-11-18T23:02:55.077Z,95.51
2022-11-18T23:05:22.976Z,94.78
2022-11-18T23:07:52.431Z,95.45
2022-11-18T23:10:25.016Z,95.88
2022-11-18T23:13:10.414Z,96.75
2022-11-18T23:15:56.989Z,97.49
2022-11-18T23:18:24.956Z,97.82
2022-11-18T23:20:53.944Z,98.27
2022-11-18T23:23:28.367Z,98.32
2022-11-18T23:25:56.972Z,98.77
2022-11-18T23:28:27.781Z,98.84
2022-11-18T23:31:05.273Z,99.17
2022-11-18T23:33:43.259Z,99.04
2022-11-18T23:36:18.187Z,98.20
2022-11-18T23:38:51.788Z,98.23
2022-11-18T23:41:20.497Z,97.35
2022-11-18T23:46:53.848Z,96.72
2022-11-18T23:49:30.747Z,95.89
2022-11-18T23:52:00.094Z,96.78
2022-11-18T23:54:31.333Z,96.79
2022-11-18T23:56:59.285Z,96.77
2022-11-18T23:59:27.403Z,97.04
